sensor_id;sensor_type;location;lat;lon;timestamp;P1;durP1;ratioP1;P2;durP2;ratioP2
69030;SDS011;56083;48.774;8.942;2022-08-01T00:01:36;2.60;;;1.83;;
69030;SDS011;56083;48.774;8.942;2022-08-01T00:04:02;3.50;;;1.75;;
69030;SDS011;56083;48.774;8.942;2022-08-01T00:06:29;4.70;;;1.80;;
69030;SDS011;56083;48.774;8.942;2022-08-01T00:08:55;4.10;;;1.90;;
69030;SDS011;56083;48.774;8.942;2022-08-01T00:11:21;4.57;;;1.75;;
69030;SDS011;56083;48.774;8.942;2022-08-01T00:13:46;4.53;;;1.90;;
69030;SDS011;56083;48.774;8.942;2022-08-01T00:16:12;2.33;;;1.60;;
69030;SDS011;56083;48.774;8.942;2022-08-01T00:18:38;3.58;;;1.88;;
69030;SDS011;56083;48.774;8.942;2022-08-01T00:21:04;5.40;;;2.08;;
69030;SDS011;56083;48.774;8.942;2022-08-01T00:23:30;3.63;;;2.20;;
69030;SDS011;56083;48.774;8.942;2022-08-01T00:25:56;3.63;;;2.20;;
69030;SDS011;56083;48.774;8.942;2022-08-01T00:28:22;3.13;;;2.25;;
69030;SDS011;56083;48.774;8.942;2022-08-01T00:30:48;3.88;;;2.40;;
69030;SDS011;56083;48.774;8.942;2022-08-01T00:33:13;3.90;;;2.20;;
69030;SDS011;56083;48.774;8.942;2022-08-01T00:35:42;3.22;;;2.15;;
69030;SDS011;56083;48.774;8.942;2022-08-01T00:38:14;7.32;;;2.30;;
69030;SDS011;56083;48.774;8.942;2022-08-01T00:40:41;2.72;;;2.15;;
69030;SDS011;56083;48.774;8.942;2022-08-01T00:43:07;3.50;;;2.30;;
69030;SDS011;56083;48.774;8.942;2022-08-01T00:45:32;7.10;;;2.35;;
69030;SDS011;56083;48.774;8.942;2022-08-01T00:47:58;5.45;;;2.38;;
69030;SDS011;56083;48.774;8.942;2022-08-01T00:50:24;4.13;;;2.30;;
69030;SDS011;56083;48.774;8.942;2022-08-01T00:52:49;4.25;;;2.03;;
69030;SDS011;56083;48.774;8.942;2022-08-01T00:55:15;4.32;;;2.30;;
69030;SDS011;56083;48.774;8.942;2022-08-01T00:57:43;4.10;;;2.13;;
69030;SDS011;56083;48.774;8.942;2022-08-01T01:00:10;3.97;;;2.28;;
69030;SDS011;56083;48.774;8.942;2022-08-01T01:02:36;5.35;;;2.33;;
69030;SDS011;56083;48.774;8.942;2022-08-01T01:05:11;4.40;;;1.85;;
69030;SDS011;56083;48.774;8.942;2022-08-01T01:07:45;2.53;;;2.17;;
69030;SDS011;56083;48.774;8.942;2022-08-01T01:15:33;3.15;;;2.00;;
69030;SDS011;56083;48.774;8.942;2022-08-01T01:20:44;3.20;;;2.00;;
69030;SDS011;56083;48.774;8.942;2022-08-01T01:23:50;2.43;;;2.00;;
69030;SDS011;56083;48.774;8.942;2022-08-01T01:31:51;3.42;;;2.22;;
69030;SDS011;56083;48.774;8.942;2022-08-01T01:34:23;4.15;;;2.50;;
69030;SDS011;56083;48.774;8.942;2022-08-01T01:36:52;3.78;;;2.40;;
69030;SDS011;56083;48.774;8.942;2022-08-01T01:39:21;6.93;;;2.10;;
69030;SDS011;56083;48.774;8.942;2022-08-01T01:41:49;3.60;;;2.38;;
69030;SDS011;56083;48.774;8.942;2022-08-01T01:44:16;4.10;;;2.28;;
69030;SDS011;56083;48.774;8.942;2022-08-01T01:46:43;4.47;;;2.30;;
69030;SDS011;56083;48.774;8.942;2022-08-01T01:49:11;4.80;;;2.40;;
69030;SDS011;56083;48.774;8.942;2022-08-01T01:51:38;3.92;;;2.35;;
69030;SDS011;56083;48.774;8.942;2022-08-01T01:54:06;3.63;;;2.55;;
69030;SDS011;56083;48.774;8.942;2022-08-01T01:56:34;3.97;;;2.10;;
69030;SDS011;56083;48.774;8.942;2022-08-01T01:59:13;4.15;;;2.53;;
69030;SDS011;56083;48.774;8.942;2022-08-01T02:01:44;3.95;;;2.38;;
69030;SDS011;56083;48.774;8.942;2022-08-01T02:04:13;8.10;;;2.45;;
69030;SDS011;56083;48.774;8.942;2022-08-01T02:06:39;4.03;;;2.30;;
69030;SDS011;56083;48.774;8.942;2022-08-01T02:09:07;6.28;;;2.47;;
69030;SDS011;56083;48.774;8.942;2022-08-01T02:11:35;5.90;;;2.22;;
69030;SDS011;56083;48.774;8.942;2022-08-01T02:14:03;4.93;;;2.50;;
69030;SDS011;56083;48.774;8.942;2022-08-01T02:16:31;7.63;;;2.47;;
69030;SDS011;56083;48.774;8.942;2022-08-01T02:18:59;10.15;;;2.53;;
69030;SDS011;56083;48.774;8.942;2022-08-01T02:21:37;5.65;;;2.35;;
69030;SDS011;56083;48.774;8.942;2022-08-01T02:24:10;4.00;;;2.45;;
69030;SDS011;56083;48.774;8.942;2022-08-01T02:26:56;5.72;;;2.25;;
69030;SDS011;56083;48.774;8.942;2022-08-01T02:29:46;5.03;;;2.65;;
69030;SDS011;56083;48.774;8.942;2022-08-01T02:32:26;6.43;;;2.28;;
69030;SDS011;56083;48.774;8.942;2022-08-01T02:34:56;4.32;;;2.38;;
69030;SDS011;56083;48.774;8.942;2022-08-01T02:37:25;5.50;;;2.10;;
69030;SDS011;56083;48.774;8.942;2022-08-01T02:39:52;5.32;;;2.33;;
69030;SDS011;56083;48.774;8.942;2022-08-01T02:42:19;7.22;;;2.65;;
69030;SDS011;56083;48.774;8.942;2022-08-01T02:44:49;4.82;;;2.72;;
69030;SDS011;56083;48.774;8.942;2022-08-01T02:47:17;4.72;;;2.65;;
69030;SDS011;56083;48.774;8.942;2022-08-01T02:49:46;4.57;;;2.63;;
69030;SDS011;56083;48.774;8.942;2022-08-01T02:52:15;3.05;;;2.30;;
69030;SDS011;56083;48.774;8.942;2022-08-01T02:54:47;6.13;;;2.80;;
69030;SDS011;56083;48.774;8.942;2022-08-01T02:57:15;5.53;;;2.70;;
69030;SDS011;56083;48.774;8.942;2022-08-01T02:59:42;3.60;;;2.50;;
69030;SDS011;56083;48.774;8.942;2022-08-01T03:02:09;3.50;;;2.60;;
69030;SDS011;56083;48.774;8.942;2022-08-01T03:04:36;8.52;;;3.25;;
69030;SDS011;56083;48.774;8.942;2022-08-01T03:07:04;5.03;;;3.00;;
69030;SDS011;56083;48.774;8.942;2022-08-01T03:09:33;4.22;;;3.08;;
69030;SDS011;56083;48.774;8.942;2022-08-01T03:12:03;3.90;;;2.85;;
69030;SDS011;56083;48.774;8.942;2022-08-01T03:14:33;4.13;;;2.90;;
69030;SDS011;56083;48.774;8.942;2022-08-01T03:17:03;5.03;;;2.97;;
69030;SDS011;56083;48.774;8.942;2022-08-01T03:19:30;6.10;;;3.17;;
69030;SDS011;56083;48.774;8.942;2022-08-01T03:21:57;4.13;;;2.90;;
69030;SDS011;56083;48.774;8.942;2022-08-01T03:24:25;9.63;;;3.22;;
69030;SDS011;56083;48.774;8.942;2022-08-01T03:26:52;3.75;;;2.80;;
69030;SDS011;56083;48.774;8.942;2022-08-01T03:29:20;5.55;;;3.08;;
69030;SDS011;56083;48.774;8.942;2022-08-01T03:31:49;5.78;;;3.10;;
69030;SDS011;56083;48.774;8.942;2022-08-01T03:34:16;3.88;;;3.03;;
69030;SDS011;56083;48.774;8.942;2022-08-01T03:36:45;4.75;;;3.63;;
69030;SDS011;56083;48.774;8.942;2022-08-01T03:39:13;4.57;;;3.05;;
69030;SDS011;56083;48.774;8.942;2022-08-01T03:41:42;4.00;;;3.25;;
69030;SDS011;56083;48.774;8.942;2022-08-01T03:44:14;6.13;;;3.30;;
69030;SDS011;56083;48.774;8.942;2022-08-01T03:46:47;3.55;;;3.00;;
69030;SDS011;56083;48.774;8.942;2022-08-01T03:49:17;5.10;;;2.97;;
69030;SDS011;56083;48.774;8.942;2022-08-01T03:51:48;5.70;;;3.38;;
69030;SDS011;56083;48.774;8.942;2022-08-01T03:54:16;4.30;;;3.08;;
69030;SDS011;56083;48.774;8.942;2022-08-01T03:56:50;6.10;;;3.63;;
69030;SDS011;56083;48.774;8.942;2022-08-01T03:59:17;5.20;;;3.63;;
69030;SDS011;56083;48.774;8.942;2022-08-01T04:01:44;7.00;;;3.70;;
69030;SDS011;56083;48.774;8.942;2022-08-01T04:04:11;7.20;;;3.33;;
69030;SDS011;56083;48.774;8.942;2022-08-01T04:06:38;5.63;;;3.03;;
69030;SDS011;56083;48.774;8.942;2022-08-01T04:09:06;5.82;;;3.58;;
69030;SDS011;56083;48.774;8.942;2022-08-01T04:11:33;10.82;;;3.33;;
69030;SDS011;56083;48.774;8.942;2022-08-01T04:13:59;7.50;;;3.35;;
69030;SDS011;56083;48.774;8.942;2022-08-01T04:16:25;4.78;;;3.33;;
69030;SDS011;56083;48.774;8.942;2022-08-01T04:18:51;5.43;;;3.30;;
69030;SDS011;56083;48.774;8.942;2022-08-01T04:21:26;4.85;;;3.55;;
69030;SDS011;56083;48.774;8.942;2022-08-01T04:23:54;5.30;;;3.38;;
69030;SDS011;56083;48.774;8.942;2022-08-01T04:26:24;5.82;;;3.42;;
69030;SDS011;56083;48.774;8.942;2022-08-01T04:28:51;5.70;;;3.10;;
69030;SDS011;56083;48.774;8.942;2022-08-01T04:31:19;5.88;;;3.03;;
69030;SDS011;56083;48.774;8.942;2022-08-01T04:33:47;5.35;;;3.30;;
69030;SDS011;56083;48.774;8.942;2022-08-01T04:36:14;7.95;;;3.30;;
69030;SDS011;56083;48.774;8.942;2022-08-01T04:38:44;5.20;;;3.40;;
69030;SDS011;56083;48.774;8.942;2022-08-01T04:41:13;5.72;;;3.30;;
69030;SDS011;56083;48.774;8.942;2022-08-01T04:43:40;5.57;;;3.40;;
69030;SDS011;56083;48.774;8.942;2022-08-01T04:46:07;9.05;;;3.72;;
69030;SDS011;56083;48.774;8.942;2022-08-01T04:48:34;5.85;;;3.30;;
69030;SDS011;56083;48.774;8.942;2022-08-01T04:51:02;8.25;;;3.67;;
69030;SDS011;56083;48.774;8.942;2022-08-01T04:53:28;8.57;;;3.67;;
69030;SDS011;56083;48.774;8.942;2022-08-01T04:55:57;6.18;;;3.40;;
69030;SDS011;56083;48.774;8.942;2022-08-01T04:58:23;4.63;;;3.20;;
69030;SDS011;56083;48.774;8.942;2022-08-01T05:00:49;4.32;;;2.90;;
69030;SDS011;56083;48.774;8.942;2022-08-01T05:03:14;3.63;;;3.08;;
69030;SDS011;56083;48.774;8.942;2022-08-01T05:05:41;8.77;;;3.70;;
69030;SDS011;56083;48.774;8.942;2022-08-01T05:08:06;9.13;;;3.25;;
69030;SDS011;56083;48.774;8.942;2022-08-01T05:10:32;12.75;;;3.50;;
69030;SDS011;56083;48.774;8.942;2022-08-01T05:12:58;13.73;;;3.50;;
69030;SDS011;56083;48.774;8.942;2022-08-01T05:15:24;14.15;;;4.32;;
69030;SDS011;56083;48.774;8.942;2022-08-01T05:17:50;18.85;;;3.53;;
69030;SDS011;56083;48.774;8.942;2022-08-01T05:20:15;9.70;;;3.45;;
69030;SDS011;56083;48.774;8.942;2022-08-01T05:22:42;10.68;;;3.15;;
69030;SDS011;56083;48.774;8.942;2022-08-01T05:25:07;12.40;;;3.45;;
69030;SDS011;56083;48.774;8.942;2022-08-01T05:27:33;17.23;;;3.10;;
69030;SDS011;56083;48.774;8.942;2022-08-01T05:30:04;8.02;;;3.30;;
69030;SDS011;56083;48.774;8.942;2022-08-01T05:32:31;9.90;;;3.03;;
69030;SDS011;56083;48.774;8.942;2022-08-01T05:34:57;5.20;;;2.58;;
69030;SDS011;56083;48.774;8.942;2022-08-01T05:37:23;8.75;;;3.15;;
69030;SDS011;56083;48.774;8.942;2022-08-01T05:39:48;11.60;;;3.42;;
69030;SDS011;56083;48.774;8.942;2022-08-01T05:42:14;9.05;;;3.10;;
69030;SDS011;56083;48.774;8.942;2022-08-01T05:44:39;15.25;;;3.30;;
69030;SDS011;56083;48.774;8.942;2022-08-01T05:47:05;7.07;;;3.05;;
69030;SDS011;56083;48.774;8.942;2022-08-01T05:49:31;10.95;;;3.38;;
69030;SDS011;56083;48.774;8.942;2022-08-01T05:51:56;9.90;;;3.03;;
69030;SDS011;56083;48.774;8.942;2022-08-01T05:54:22;10.23;;;2.90;;
69030;SDS011;56083;48.774;8.942;2022-08-01T05:56:48;6.75;;;2.70;;
69030;SDS011;56083;48.774;8.942;2022-08-01T05:59:13;8.00;;;2.70;;
69030;SDS011;56083;48.774;8.942;2022-08-01T06:01:39;6.53;;;2.45;;
69030;SDS011;56083;48.774;8.942;2022-08-01T06:04:04;8.65;;;2.78;;
69030;SDS011;56083;48.774;8.942;2022-08-01T06:06:30;5.80;;;2.67;;
69030;SDS011;56083;48.774;8.942;2022-08-01T06:08:56;7.43;;;2.55;;
69030;SDS011;56083;48.774;8.942;2022-08-01T06:11:21;7.15;;;2.95;;
69030;SDS011;56083;48.774;8.942;2022-08-01T06:13:47;4.63;;;2.40;;
69030;SDS011;56083;48.774;8.942;2022-08-01T06:16:13;3.95;;;2.65;;
69030;SDS011;56083;48.774;8.942;2022-08-01T06:18:39;5.20;;;2.28;;
69030;SDS011;56083;48.774;8.942;2022-08-01T06:21:04;7.03;;;2.13;;
69030;SDS011;56083;48.774;8.942;2022-08-01T06:23:30;6.75;;;2.00;;
69030;SDS011;56083;48.774;8.942;2022-08-01T06:25:56;4.75;;;1.77;;
69030;SDS011;56083;48.774;8.942;2022-08-01T06:28:23;2.90;;;1.67;;
69030;SDS011;56083;48.774;8.942;2022-08-01T06:30:49;3.67;;;1.25;;
69030;SDS011;56083;48.774;8.942;2022-08-01T06:33:15;2.58;;;1.45;;
69030;SDS011;56083;48.774;8.942;2022-08-01T06:35:41;4.03;;;1.30;;
69030;SDS011;56083;48.774;8.942;2022-08-01T06:38:07;8.55;;;1.70;;
69030;SDS011;56083;48.774;8.942;2022-08-01T06:40:32;2.72;;;1.40;;
69030;SDS011;56083;48.774;8.942;2022-08-01T06:42:58;3.15;;;1.38;;
69030;SDS011;56083;48.774;8.942;2022-08-01T06:45:24;2.67;;;1.20;;
69030;SDS011;56083;48.774;8.942;2022-08-01T06:47:51;3.58;;;1.30;;
69030;SDS011;56083;48.774;8.942;2022-08-01T06:50:17;2.55;;;1.30;;
69030;SDS011;56083;48.774;8.942;2022-08-01T06:52:43;1.40;;;1.20;;
69030;SDS011;56083;48.774;8.942;2022-08-01T06:55:09;2.67;;;1.30;;
69030;SDS011;56083;48.774;8.942;2022-08-01T06:57:35;3.55;;;1.25;;
69030;SDS011;56083;48.774;8.942;2022-08-01T07:00:03;1.98;;;1.20;;
69030;SDS011;56083;48.774;8.942;2022-08-01T07:02:32;1.92;;;1.10;;
69030;SDS011;56083;48.774;8.942;2022-08-01T07:04:58;4.00;;;1.30;;
69030;SDS011;56083;48.774;8.942;2022-08-01T07:07:25;1.60;;;1.20;;
69030;SDS011;56083;48.774;8.942;2022-08-01T07:09:52;2.42;;;1.40;;
69030;SDS011;56083;48.774;8.942;2022-08-01T07:12:17;2.65;;;1.45;;
69030;SDS011;56083;48.774;8.942;2022-08-01T07:14:43;2.47;;;1.60;;
69030;SDS011;56083;48.774;8.942;2022-08-01T07:17:09;2.17;;;1.40;;
69030;SDS011;56083;48.774;8.942;2022-08-01T07:19:34;2.50;;;1.23;;
69030;SDS011;56083;48.774;8.942;2022-08-01T07:22:00;1.95;;;1.30;;
69030;SDS011;56083;48.774;8.942;2022-08-01T07:24:26;4.28;;;1.30;;
69030;SDS011;56083;48.774;8.942;2022-08-01T07:26:53;3.42;;;1.05;;
69030;SDS011;56083;48.774;8.942;2022-08-01T07:29:20;1.88;;;1.00;;
69030;SDS011;56083;48.774;8.942;2022-08-01T07:31:51;2.13;;;1.20;;
69030;SDS011;56083;48.774;8.942;2022-08-01T07:34:18;7.18;;;1.50;;
69030;SDS011;56083;48.774;8.942;2022-08-01T07:36:43;1.92;;;1.40;;
69030;SDS011;56083;48.774;8.942;2022-08-01T07:39:09;2.05;;;1.10;;
69030;SDS011;56083;48.774;8.942;2022-08-01T07:41:35;3.63;;;1.13;;
69030;SDS011;56083;48.774;8.942;2022-08-01T07:44:01;6.50;;;1.30;;
69030;SDS011;56083;48.774;8.942;2022-08-01T07:46:26;3.42;;;1.50;;
69030;SDS011;56083;48.774;8.942;2022-08-01T07:48:52;2.28;;;1.50;;
69030;SDS011;56083;48.774;8.942;2022-08-01T07:51:18;4.60;;;1.23;;
69030;SDS011;56083;48.774;8.942;2022-08-01T07:53:43;4.22;;;1.40;;
69030;SDS011;56083;48.774;8.942;2022-08-01T07:56:09;3.00;;;1.73;;
69030;SDS011;56083;48.774;8.942;2022-08-01T07:58:35;4.03;;;1.50;;
69030;SDS011;56083;48.774;8.942;2022-08-01T08:01:00;5.18;;;1.60;;
69030;SDS011;56083;48.774;8.942;2022-08-01T08:03:26;4.45;;;1.50;;
69030;SDS011;56083;48.774;8.942;2022-08-01T08:05:52;4.18;;;1.67;;
69030;SDS011;56083;48.774;8.942;2022-08-01T08:08:18;3.22;;;1.70;;
69030;SDS011;56083;48.774;8.942;2022-08-01T08:10:44;4.13;;;2.10;;
69030;SDS011;56083;48.774;8.942;2022-08-01T08:13:10;3.90;;;2.35;;
69030;SDS011;56083;48.774;8.942;2022-08-01T08:15:35;4.03;;;2.30;;
69030;SDS011;56083;48.774;8.942;2022-08-01T08:18:02;4.88;;;2.35;;
69030;SDS011;56083;48.774;8.942;2022-08-01T08:20:28;3.83;;;2.10;;
69030;SDS011;56083;48.774;8.942;2022-08-01T08:22:55;2.20;;;2.00;;
69030;SDS011;56083;48.774;8.942;2022-08-01T08:25:23;4.40;;;1.90;;
69030;SDS011;56083;48.774;8.942;2022-08-01T08:27:49;3.92;;;1.80;;
69030;SDS011;56083;48.774;8.942;2022-08-01T08:30:14;4.05;;;1.60;;
69030;SDS011;56083;48.774;8.942;2022-08-01T08:32:40;2.55;;;1.77;;
69030;SDS011;56083;48.774;8.942;2022-08-01T08:35:07;2.92;;;1.70;;
69030;SDS011;56083;48.774;8.942;2022-08-01T08:37:36;2.47;;;1.67;;
69030;SDS011;56083;48.774;8.942;2022-08-01T08:40:03;2.17;;;1.80;;
69030;SDS011;56083;48.774;8.942;2022-08-01T08:42:29;2.20;;;1.80;;
69030;SDS011;56083;48.774;8.942;2022-08-01T08:44:55;2.45;;;1.90;;
69030;SDS011;56083;48.774;8.942;2022-08-01T08:47:21;2.38;;;1.80;;
69030;SDS011;56083;48.774;8.942;2022-08-01T08:49:49;4.15;;;1.92;;
69030;SDS011;56083;48.774;8.942;2022-08-01T08:52:20;7.88;;;2.15;;
69030;SDS011;56083;48.774;8.942;2022-08-01T08:54:46;6.53;;;2.30;;
69030;SDS011;56083;48.774;8.942;2022-08-01T08:57:13;5.07;;;2.30;;
69030;SDS011;56083;48.774;8.942;2022-08-01T08:59:40;5.55;;;2.53;;
69030;SDS011;56083;48.774;8.942;2022-08-01T09:02:08;7.28;;;2.78;;
69030;SDS011;56083;48.774;8.942;2022-08-01T09:04:36;4.18;;;2.20;;
69030;SDS011;56083;48.774;8.942;2022-08-01T09:07:04;9.18;;;2.92;;
69030;SDS011;56083;48.774;8.942;2022-08-01T09:09:30;5.47;;;3.08;;
69030;SDS011;56083;48.774;8.942;2022-08-01T09:11:56;4.68;;;2.95;;
69030;SDS011;56083;48.774;8.942;2022-08-01T09:14:23;5.20;;;2.70;;
69030;SDS011;56083;48.774;8.942;2022-08-01T09:17:09;4.55;;;3.00;;
69030;SDS011;56083;48.774;8.942;2022-08-01T09:19:37;3.88;;;2.85;;
69030;SDS011;56083;48.774;8.942;2022-08-01T09:22:08;2.63;;;2.33;;
69030;SDS011;56083;48.774;8.942;2022-08-01T09:24:38;5.55;;;2.63;;
69030;SDS011;56083;48.774;8.942;2022-08-01T09:27:16;4.13;;;2.45;;
69030;SDS011;56083;48.774;8.942;2022-08-01T09:29:44;4.03;;;2.63;;
69030;SDS011;56083;48.774;8.942;2022-08-01T09:32:10;3.65;;;2.40;;
69030;SDS011;56083;48.774;8.942;2022-08-01T09:34:35;3.13;;;2.22;;
69030;SDS011;56083;48.774;8.942;2022-08-01T09:37:02;8.45;;;2.63;;
69030;SDS011;56083;48.774;8.942;2022-08-01T09:39:34;4.75;;;2.20;;
69030;SDS011;56083;48.774;8.942;2022-08-01T09:42:26;4.20;;;2.67;;
69030;SDS011;56083;48.774;8.942;2022-08-01T09:44:53;5.72;;;2.65;;
69030;SDS011;56083;48.774;8.942;2022-08-01T09:47:19;6.22;;;3.03;;
69030;SDS011;56083;48.774;8.942;2022-08-01T09:49:53;3.65;;;2.63;;
69030;SDS011;56083;48.774;8.942;2022-08-01T09:52:21;3.90;;;2.67;;
69030;SDS011;56083;48.774;8.942;2022-08-01T09:54:52;4.13;;;2.78;;
69030;SDS011;56083;48.774;8.942;2022-08-01T09:57:20;5.97;;;2.80;;
69030;SDS011;56083;48.774;8.942;2022-08-01T09:59:47;3.08;;;2.30;;
69030;SDS011;56083;48.774;8.942;2022-08-01T10:02:26;3.08;;;2.40;;
69030;SDS011;56083;48.774;8.942;2022-08-01T10:04:53;3.35;;;2.35;;
69030;SDS011;56083;48.774;8.942;2022-08-01T10:07:19;5.00;;;2.28;;
69030;SDS011;56083;48.774;8.942;2022-08-01T10:09:46;5.25;;;2.25;;
69030;SDS011;56083;48.774;8.942;2022-08-01T10:12:17;4.82;;;2.30;;
69030;SDS011;56083;48.774;8.942;2022-08-01T10:14:44;2.38;;;2.00;;
69030;SDS011;56083;48.774;8.942;2022-08-01T10:17:15;3.65;;;2.00;;
69030;SDS011;56083;48.774;8.942;2022-08-01T10:19:42;4.65;;;2.33;;
69030;SDS011;56083;48.774;8.942;2022-08-01T10:22:09;3.45;;;1.98;;
69030;SDS011;56083;48.774;8.942;2022-08-01T10:24:43;2.20;;;1.73;;
69030;SDS011;56083;48.774;8.942;2022-08-01T10:27:12;3.58;;;1.88;;
69030;SDS011;56083;48.774;8.942;2022-08-01T10:32:19;3.42;;;1.70;;
69030;SDS011;56083;48.774;8.942;2022-08-01T10:34:45;2.50;;;1.63;;
69030;SDS011;56083;48.774;8.942;2022-08-01T10:37:12;2.05;;;1.85;;
69030;SDS011;56083;48.774;8.942;2022-08-01T10:39:39;6.10;;;1.80;;
69030;SDS011;56083;48.774;8.942;2022-08-01T10:42:05;3.75;;;1.75;;
69030;SDS011;56083;48.774;8.942;2022-08-01T10:44:33;2.63;;;1.48;;
69030;SDS011;56083;48.774;8.942;2022-08-01T10:47:02;3.25;;;1.92;;
69030;SDS011;56083;48.774;8.942;2022-08-01T10:49:34;5.00;;;1.50;;
69030;SDS011;56083;48.774;8.942;2022-08-01T10:52:04;4.97;;;1.77;;
69030;SDS011;56083;48.774;8.942;2022-08-01T10:54:30;2.65;;;1.70;;
69030;SDS011;56083;48.774;8.942;2022-08-01T10:57:04;3.60;;;1.70;;
69030;SDS011;56083;48.774;8.942;2022-08-01T10:59:32;3.10;;;1.80;;
69030;SDS011;56083;48.774;8.942;2022-08-01T11:01:59;7.60;;;1.73;;
69030;SDS011;56083;48.774;8.942;2022-08-01T11:04:44;2.05;;;1.80;;
69030;SDS011;56083;48.774;8.942;2022-08-01T11:07:24;3.00;;;1.70;;
69030;SDS011;56083;48.774;8.942;2022-08-01T11:10:53;2.03;;;1.75;;
69030;SDS011;56083;48.774;8.942;2022-08-01T11:13:08;2.47;;;1.60;;
69030;SDS011;56083;48.774;8.942;2022-08-01T11:15:34;2.58;;;1.63;;
69030;SDS011;56083;48.774;8.942;2022-08-01T11:18:01;2.50;;;1.92;;
69030;SDS011;56083;48.774;8.942;2022-08-01T11:20:54;7.57;;;1.90;;
69030;SDS011;56083;48.774;8.942;2022-08-01T11:23:22;3.05;;;1.63;;
69030;SDS011;56083;48.774;8.942;2022-08-01T11:33:09;4.35;;;1.83;;
69030;SDS011;56083;48.774;8.942;2022-08-01T11:35:36;2.13;;;1.67;;
69030;SDS011;56083;48.774;8.942;2022-08-01T11:38:25;5.97;;;1.75;;
69030;SDS011;56083;48.774;8.942;2022-08-01T11:43:59;5.55;;;1.80;;
69030;SDS011;56083;48.774;8.942;2022-08-01T11:55:08;2.45;;;1.50;;
69030;SDS011;56083;48.774;8.942;2022-08-01T11:57:34;3.13;;;1.77;;
69030;SDS011;56083;48.774;8.942;2022-08-01T12:00:12;2.50;;;1.63;;
69030;SDS011;56083;48.774;8.942;2022-08-01T12:02:40;3.67;;;1.80;;
69030;SDS011;56083;48.774;8.942;2022-08-01T12:05:06;2.42;;;1.60;;
69030;SDS011;56083;48.774;8.942;2022-08-01T12:07:35;5.45;;;1.70;;
69030;SDS011;56083;48.774;8.942;2022-08-01T12:12:32;6.50;;;1.90;;
69030;SDS011;56083;48.774;8.942;2022-08-01T12:15:00;5.03;;;1.90;;
69030;SDS011;56083;48.774;8.942;2022-08-01T12:17:47;3.17;;;1.50;;
69030;SDS011;56083;48.774;8.942;2022-08-01T12:20:21;6.95;;;1.67;;
69030;SDS011;56083;48.774;8.942;2022-08-01T12:22:52;6.45;;;1.88;;
69030;SDS011;56083;48.774;8.942;2022-08-01T12:25:19;4.47;;;1.63;;
69030;SDS011;56083;48.774;8.942;2022-08-01T12:27:45;4.78;;;1.83;;
69030;SDS011;56083;48.774;8.942;2022-08-01T12:30:13;3.60;;;1.67;;
69030;SDS011;56083;48.774;8.942;2022-08-01T12:32:40;5.60;;;1.60;;
69030;SDS011;56083;48.774;8.942;2022-08-01T12:35:08;4.55;;;1.77;;
69030;SDS011;56083;48.774;8.942;2022-08-01T12:37:40;4.53;;;1.80;;
69030;SDS011;56083;48.774;8.942;2022-08-01T12:42:41;2.40;;;1.70;;
69030;SDS011;56083;48.774;8.942;2022-08-01T12:45:09;3.05;;;1.60;;
69030;SDS011;56083;48.774;8.942;2022-08-01T12:47:36;3.40;;;1.67;;
69030;SDS011;56083;48.774;8.942;2022-08-01T12:50:07;4.25;;;1.60;;
69030;SDS011;56083;48.774;8.942;2022-08-01T12:52:36;6.78;;;1.70;;
69030;SDS011;56083;48.774;8.942;2022-08-01T12:57:35;4.65;;;1.60;;
69030;SDS011;56083;48.774;8.942;2022-08-01T13:02:38;4.10;;;1.60;;
69030;SDS011;56083;48.774;8.942;2022-08-01T13:05:04;5.13;;;1.67;;
69030;SDS011;56083;48.774;8.942;2022-08-01T13:07:44;6.03;;;1.60;;
69030;SDS011;56083;48.774;8.942;2022-08-01T13:10:10;3.70;;;1.50;;
69030;SDS011;56083;48.774;8.942;2022-08-01T13:12:38;2.47;;;1.60;;
69030;SDS011;56083;48.774;8.942;2022-08-01T13:15:17;5.85;;;1.70;;
69030;SDS011;56083;48.774;8.942;2022-08-01T13:17:45;3.83;;;1.60;;
69030;SDS011;56083;48.774;8.942;2022-08-01T13:20:20;5.05;;;1.75;;
69030;SDS011;56083;48.774;8.942;2022-08-01T13:22:47;3.38;;;1.80;;
69030;SDS011;56083;48.774;8.942;2022-08-01T13:25:13;2.42;;;1.60;;
69030;SDS011;56083;48.774;8.942;2022-08-01T13:27:40;2.55;;;1.90;;
69030;SDS011;56083;48.774;8.942;2022-08-01T13:30:13;4.43;;;1.95;;
69030;SDS011;56083;48.774;8.942;2022-08-01T13:32:40;5.03;;;1.90;;
69030;SDS011;56083;48.774;8.942;2022-08-01T13:35:11;3.45;;;1.98;;
69030;SDS011;56083;48.774;8.942;2022-08-01T13:37:41;4.45;;;1.80;;
69030;SDS011;56083;48.774;8.942;2022-08-01T13:40:08;6.32;;;1.75;;
69030;SDS011;56083;48.774;8.942;2022-08-01T13:42:35;6.90;;;1.80;;
69030;SDS011;56083;48.774;8.942;2022-08-01T13:45:01;2.22;;;1.50;;
69030;SDS011;56083;48.774;8.942;2022-08-01T13:47:28;3.70;;;1.60;;
69030;SDS011;56083;48.774;8.942;2022-08-01T13:49:54;2.13;;;1.60;;
69030;SDS011;56083;48.774;8.942;2022-08-01T13:52:19;5.47;;;2.00;;
69030;SDS011;56083;48.774;8.942;2022-08-01T13:54:45;3.88;;;1.80;;
69030;SDS011;56083;48.774;8.942;2022-08-01T13:57:11;6.75;;;1.60;;
69030;SDS011;56083;48.774;8.942;2022-08-01T13:59:36;2.63;;;1.80;;
69030;SDS011;56083;48.774;8.942;2022-08-01T14:02:02;4.97;;;1.55;;
69030;SDS011;56083;48.774;8.942;2022-08-01T14:04:28;3.88;;;1.70;;
69030;SDS011;56083;48.774;8.942;2022-08-01T14:06:53;5.40;;;1.70;;
69030;SDS011;56083;48.774;8.942;2022-08-01T14:09:19;4.13;;;1.60;;
69030;SDS011;56083;48.774;8.942;2022-08-01T14:11:47;2.03;;;1.50;;
69030;SDS011;56083;48.774;8.942;2022-08-01T14:14:13;5.28;;;1.70;;
69030;SDS011;56083;48.774;8.942;2022-08-01T14:16:39;2.70;;;1.60;;
69030;SDS011;56083;48.774;8.942;2022-08-01T14:19:04;4.38;;;1.70;;
69030;SDS011;56083;48.774;8.942;2022-08-01T14:21:30;2.60;;;1.42;;
69030;SDS011;56083;48.774;8.942;2022-08-01T14:23:56;3.50;;;1.50;;
69030;SDS011;56083;48.774;8.942;2022-08-01T14:26:22;3.08;;;1.70;;
69030;SDS011;56083;48.774;8.942;2022-08-01T14:28:48;4.47;;;1.50;;
69030;SDS011;56083;48.774;8.942;2022-08-01T14:31:13;2.47;;;1.42;;
69030;SDS011;56083;48.774;8.942;2022-08-01T14:33:39;3.40;;;1.65;;
69030;SDS011;56083;48.774;8.942;2022-08-01T14:36:05;2.13;;;1.40;;
69030;SDS011;56083;48.774;8.942;2022-08-01T14:38:31;6.68;;;1.83;;
69030;SDS011;56083;48.774;8.942;2022-08-01T14:40:56;2.33;;;1.40;;
69030;SDS011;56083;48.774;8.942;2022-08-01T14:43:22;2.30;;;1.70;;
69030;SDS011;56083;48.774;8.942;2022-08-01T14:45:48;7.68;;;1.90;;
69030;SDS011;56083;48.774;8.942;2022-08-01T14:48:18;5.75;;;1.73;;
69030;SDS011;56083;48.774;8.942;2022-08-01T14:50:43;4.43;;;1.80;;
69030;SDS011;56083;48.774;8.942;2022-08-01T14:53:09;3.78;;;1.58;;
69030;SDS011;56083;48.774;8.942;2022-08-01T14:55:35;4.70;;;1.60;;
69030;SDS011;56083;48.774;8.942;2022-08-01T14:58:00;5.45;;;1.60;;
69030;SDS011;56083;48.774;8.942;2022-08-01T15:00:26;3.35;;;1.80;;
69030;SDS011;56083;48.774;8.942;2022-08-01T15:02:52;5.55;;;1.75;;
69030;SDS011;56083;48.774;8.942;2022-08-01T15:05:17;4.75;;;1.60;;
69030;SDS011;56083;48.774;8.942;2022-08-01T15:07:43;2.33;;;1.40;;
69030;SDS011;56083;48.774;8.942;2022-08-01T15:10:09;2.42;;;1.50;;
69030;SDS011;56083;48.774;8.942;2022-08-01T15:12:35;2.10;;;1.50;;
69030;SDS011;56083;48.774;8.942;2022-08-01T15:15:00;2.65;;;1.42;;
69030;SDS011;56083;48.774;8.942;2022-08-01T15:17:27;3.72;;;1.65;;
69030;SDS011;56083;48.774;8.942;2022-08-01T15:19:54;5.65;;;1.65;;
69030;SDS011;56083;48.774;8.942;2022-08-01T15:22:21;4.72;;;1.45;;
69030;SDS011;56083;48.774;8.942;2022-08-01T15:24:48;2.42;;;1.73;;
69030;SDS011;56083;48.774;8.942;2022-08-01T15:27:15;5.85;;;1.75;;
69030;SDS011;56083;48.774;8.942;2022-08-01T15:29:41;6.93;;;1.70;;
69030;SDS011;56083;48.774;8.942;2022-08-01T15:32:07;3.85;;;1.45;;
69030;SDS011;56083;48.774;8.942;2022-08-01T15:34:33;4.25;;;1.60;;
69030;SDS011;56083;48.774;8.942;2022-08-01T15:37:00;4.55;;;1.30;;
69030;SDS011;56083;48.774;8.942;2022-08-01T15:39:27;7.07;;;1.40;;